新東京国際空港の過去48時間の天気

新東京国際空港 (Tokyo/New Tokyo Intl)

現在時刻: 8/18 23:13 JST (8/18 14:13 UTC) 以下の時間は現地時間です。

過去48時間のMETAR気象情報
時間 風向 風速(m/s) 視程 気温(℃) 湿度(%) 気圧(hPa) 天気現象
18 22:30 不定 1 10km以上 23 100 1003
18 22:00 2 10km以上 24 94 1003
18 21:30 不定 1 10km以上 23 100 1003
18 21:00 不定 1 10km以上 24 94 1003
18 20:30 不定 1 10km以上 24 94 1003
18 20:00 不定 1 10km以上 25 89 1002
18 19:30 不定 1 10km以上 25 89 1002
18 19:00 不定 1 10km以上 27 79 1002
18 18:30 西南西 2 10km以上 27 79 1001
18 18:00 西南西 3 10km以上 28 74 1001
18 17:30 西南西 5 10km以上 29 70 1001
18 17:00 西南西 4 10km以上 30 66 1001
18 16:30 南西 5 10km以上 30 70 1000
18 16:00 南西 6 10km以上 30 66 1000
18 15:30 南西 8 10km以上 30 66 1000
18 15:00 南西 7 10km以上 29 74 1000
18 14:30 南南西 7 10km以上 28 84 1000
18 14:00 南南西 6 10km以上 27 89 1001 周辺でしゅう雨
18 13:30 南南西 5 10km以上 27 94 1001 周辺でしゅう雨
18 13:00 南南西 6 10km以上 27 89 1001 周辺でしゅう雨
18 12:30 5 10km以上 27 94 1002 周辺でしゅう雨
18 12:00 5 10km以上 26 100 1002 弱いしゅう雨
18 11:30 4 8000m 26 94 1003 弱いしゅう雨
18 11:00 5 8000m 26 94 1005 弱いしゅう雨
18 10:30 南南東 4 6000m 26 100 1005 しゅう雨
18 10:16 南東 5 4500m 26 94 1005 しゅう雨 もや
18 10:00 南東 3 5000m 26 94 1005 しゅう雨 もや
18 09:30 南東 2 5000m 26 94 1006 しゅう雨 もや
18 09:00 3 10km以上 26 94 1006 しゅう雨
18 08:30 3 10km以上 26 94 1006 弱いしゅう雨
18 08:00 南南東 3 10km以上 25 100 1006 弱いしゅう雨
18 07:30 南南東 3 10km以上 25 94 1006 弱いしゅう雨
18 07:00 南南東 3 10km以上 24 100 1007 弱いしゅう雨
18 06:30 南東 2 6000m 24 94 1006 弱いしゅう雨
18 06:27 南東 2 6000m 24 94 1006 弱いしゅう雨
18 06:00 南東 2 6000m 23 100 1006
18 05:30 南東 2 6000m 23 100 1006
18 05:06 南東 2 8000m 23 100 1007
18 05:00 南東 2 8000m 23 100 1007
18 04:30 不定 1 10km以上 23 94 1007
18 04:26 不定 1 10km以上 23 94 1007
18 04:13 南東 2 10km以上 23 94 1007
18 04:00 東南東 2 10km以上 23 94 1007
18 03:30 南東 1 10km以上 23 94 1008
18 03:00 不定 1 10km以上 23 94 1008
18 02:30 南東 2 10km以上 23 94 1008
18 02:18 不定 1 10km以上 23 94 1009
18 02:00 2 10km以上 24 89 1009
18 01:30 東北東 2 10km以上 24 89 1009
18 01:00 東北東 2 10km以上 24 89 1009
18 00:30 東北東 2 10km以上 24 89 1009
18 00:00 2 10km以上 24 89 1010
17 23:40 北北東 2 10km以上 24 83 1010
17 23:30 不定 1 10km以上 24 83 1010
17 23:00 東北東 2 10km以上 24 83 1010
17 22:30 東北東 3 10km以上 24 83 1010
17 22:00 東北東 3 10km以上 24 83 1010
17 21:30 東北東 3 10km以上 24 78 1010
17 21:00 北東 3 10km以上 24 78 1010
17 20:30 北東 3 10km以上 25 74 1011
17 20:00 北東 3 10km以上 25 69 1011
17 19:30 東北東 3 10km以上 25 74 1010
17 19:00 3 10km以上 25 74 1010
17 18:30 東北東 3 10km以上 25 78 1010
17 18:00 4 10km以上 25 78 1009 弱いしゅう雨
17 17:30 東南東 4 10km以上 26 74 1009 弱いしゅう雨
17 17:00 4 10km以上 27 70 1009 周辺でしゅう雨
17 16:30 6 10km以上 28 66 1009
17 16:00 東南東 5 10km以上 29 66 1009
17 15:30 6 10km以上 29 62 1009
17 15:00 東北東 6 10km以上 30 59 1009
17 14:30 東北東 6 10km以上 30 62 1009
17 14:00 東北東 6 10km以上 30 62 1009
17 13:30 東南東 4 10km以上 30 66 1009
17 13:00 5 10km以上 30 62 1009
17 12:30 5 10km以上 31 59 1009
17 12:00 東北東 5 10km以上 30 66 1009
17 11:30 東北東 3 10km以上 30 70 1009 弱いしゅう雨
17 11:00 東北東 6 10km以上 30 70 1008 弱いしゅう雨
17 10:30 東北東 2 10km以上 30 70 1009 弱いしゅう雨
17 10:00 北東 3 10km以上 28 84 1009 周辺でしゅう雨
17 09:30 東北東 2 10km以上 28 84 1009 周辺でしゅう雨
17 09:00 2 10km以上 28 84 1009 弱いしゅう雨
17 08:30 2 10km以上 28 84 1008 弱いしゅう雨
17 08:00 不定 1 10km以上 28 84 1008 弱いしゅう雨
17 07:30 不定 1 10km以上 28 84 1007 弱いしゅう雨
17 07:00 不定 1 10km以上 27 89 1007 弱いしゅう雨
17 06:30 不定 1 10km以上 27 89 1007 弱いしゅう雨
17 06:00 南西 2 10km以上 26 89 1007 弱いしゅう雨
17 05:30 南西 2 10km以上 26 89 1006 弱い雨
17 05:00 南西 4 10km以上 27 84 1006
17 04:30 南西 3 10km以上 27 84 1006
17 04:00 西南西 3 10km以上 28 79 1005
17 03:30 西南西 2 10km以上 27 84 1005
17 03:00 南西 3 10km以上 27 89 1005
17 02:30 南西 3 10km以上 27 89 1005
17 02:00 南西 3 10km以上 28 84 1004
17 01:30 西南西 4 10km以上 28 84 1004
17 01:00 南西 5 10km以上 28 84 1004
17 00:30 南西 5 10km以上 28 84 1004
17 00:00 南西 5 10km以上 28 84 1004
16 23:30 南西 5 10km以上 28 84 1004
RJAA 181330Z VRB02KT 9999 FEW020 23/23 Q1003 NOSIG RMK 1CU020 A2963
RJAA 181300Z 17003KT 9999 FEW020 24/23 Q1003 NOSIG RMK 1CU020 A2963
RJAA 181230Z VRB02KT 9999 FEW020 23/23 Q1003 NOSIG RMK 1CU020 A2962
RJAA 181200Z VRB01KT 9999 FEW020 24/23 Q1003 NOSIG RMK 1CU020 A2963
RJAA 181130Z VRB02KT 9999 FEW020 24/23 Q1003 NOSIG RMK 1CU020 A2962
RJAA 181100Z VRB02KT 9999 FEW020 25/23 Q1002 NOSIG RMK 1CU020 A2961
RJAA 181030Z VRB02KT 9999 FEW020 25/23 Q1002 NOSIG RMK 1CU020 A2961
RJAA 181000Z VRB02KT 9999 FEW020 27/23 Q1002 NOSIG RMK 1CU020 A2960
RJAA 180930Z 24004KT 200V260 9999 FEW020 27/23 Q1001 BECMG 26005KT RMK 1CU020 A2959
RJAA 180900Z 24006KT 190V290 9999 FEW020 28/23 Q1001 BECMG 26006KT
RJAA 180830Z 24009KT 210V280 9999 FEW020 29/23 Q1001 BECMG 26006KT
RJAA 180800Z 24008KT 190V280 9999 FEW020 30/23 Q1001 BECMG 26006KT
RJAA 180730Z 22010KT 180V260 9999 FEW020 30/24 Q1000 NOSIG RMK 1CU020 A2956
RJAA 180700Z 22012KT 190V260 9999 FEW020 30/23 Q1000 NOSIG RMK 1CU020 A2955
RJAA 180630Z 22015KT 200V270 9999 FEW020 30/23 Q1000 TEMPO 22015G25KT
RJAA 180600Z 22013G24KT 190V260 9999 FEW020 BKN120 29/24 Q1000 NOSIG RMK 1CU020 6AC120 A2954
RJAA 180530Z 21013KT 170V240 9999 FEW010 SCT130 BKN180 28/25 Q1000 WS R16R TEMPO 21015G25KT
RJAA 180500Z 21011KT 190V250 9999 VCSH FEW010 BKN140 BKN150 27/25 Q1001 WS R16L TEMPO 21016G28KT RMK 1CU010 5AC140 7AC150 A2956
RJAA 180430Z 21010KT 170V240 9999 VCSH FEW010 BKN015 BKN150 27/26 Q1001 WS R16L TEMPO 21016G28KT RMK 1CU010 5CU015 7AC150 A2958
RJAA 180400Z 21011KT 160V230 9999 VCSH FEW010 BKN015 BKN150 27/25 Q1001 TEMPO 21016G28KT RMK 2CU010 5CU015 7AC150 A2958
RJAA 180330Z 19010KT 140V240 9999 VCSH FEW010 BKN012 BKN150 27/26 Q1002 BECMG FEW010 BKN020 TEMPO 21015G25KT
RJAA 180300Z 18009KT 140V210 9999 -SHRA FEW006 SCT040 BKN110 26/26 Q1002 TEMPO 21015G25KT RMK 1ST006 3SC040 7AC110 A2960 MOD TURB OBS AT 0236Z KUJYU BTN 12000FT AND 14000FT IN CMB B789 JAL809 P/FR
RJAA 180230Z 19008KT 150V210 8000 -SHRA FEW010 SCT015 BKN090 26/25 Q1003 TEMPO 21015G25KT RMK 1ST010 3CU015 7AC090 A2964 P/FR
RJAA 180200Z 18010KT 8000 -SHRA FEW010 SCT020 BKN100 26/25 Q1005 NOSIG RMK 1ST010 4CU020 7AC100 A2968
RJAA 180130Z 16007KT 6000 SHRA FEW005 BKN020 26/26 Q1005 TEMPO TL0300 4000 TSRA BR RMK 1ST005 7CU020 A2969
RJAA 180116Z 14009KT 4500 SHRA BR FEW003 SCT020 BKN100 26/25 Q1005 RMK 1ST003 3CU020 7AC100 A2968 P/FR
RJAA 180100Z 14006KT 5000 SHRA BR FEW003 SCT020 BKN100 26/25 Q1005 TEMPO 3000 TSRA BR FEW004 BKN008 FEW020CB
RJAA 180030Z 13004KT 5000 SHRA BR FEW010 SCT020 BKN100 26/25 Q1006 TEMPO 3000 TSRA BR FEW004 BKN008 FEW020CB RMK 1ST010 3CU020 7AC100 A2971
RJAA 180000Z 17005KT 9999 SHRA FEW010 SCT020 BKN120 26/25 Q1006 TEMPO 3000 TSRA BR FEW004 BKN008 FEW020CB RMK 1CU010 3CU020 7AC120 A2973
RJAA 172330Z 17005KT 9999 -SHRA FEW010 SCT015 BKN120 26/25 Q1006 TEMPO 3000 TSRA BR FEW004 BKN008 FEW020CB RMK 1CU010 3CU015 7AC120 A2972
RJAA 172300Z 16005KT 9999 -SHRA FEW010 BKN015 BKN130 25/25 Q1006 TEMPO 3000 TSRA BR FEW004 BKN008 FEW020CB
RJAA 172230Z 16005KT 9999 -SHRA FEW010 BKN015 BKN150 25/24 Q1006 TEMPO FM0000 3000 TSRA BR FEW004 BKN008 FEW020CB
RJAA 172200Z 16005KT 9999 -SHRA FEW003 SCT015 BKN100 24/24 Q1007 TEMPO TL2230 4000 -SHRA BR FEW003 BKN005 RMK 1ST003 3CU015 7AC100 A2974
RJAA 172130Z 14003KT 6000 -SHRA FEW002 SCT003 BKN015 24/23 Q1006 TEMPO 4000 -SHRA BR FEW003 BKN005 RMK 1ST002 4ST003 7CU015 A2973
RJAA 172127Z 14003KT 6000 -SHRA FEW002 SCT003 BKN015 24/23 Q1006 RMK 1ST002 4ST003 7CU015 A2973
RJAA 172100Z 14004KT 6000 FEW002 BKN003 BKN150 23/23 Q1006 NOSIG RMK 1ST002 5ST003 7AC150 A2973
RJAA 172030Z AUTO 13004KT 6000 OVC002 23/23 Q1006 NOSIG RMK A2973
RJAA 172006Z AUTO 13004KT 8000 BKN002 OVC015 23/23 Q1007 RMK A2974
RJAA 172000Z AUTO 13004KT 8000 BKN003 OVC015 23/23 Q1007 NOSIG RMK A2974
RJAA 171930Z AUTO VRB02KT 9999 BKN003 BKN017 OVC200 23/22 Q1007 NOSIG RMK A2975
RJAA 171926Z AUTO VRB02KT 9999 SCT003 SCT007 BKN012 23/22 Q1007 RMK A2975
RJAA 171913Z AUTO 13004KT 9999 BKN003 OVC005 23/22 Q1007 RMK A2975
RJAA 171900Z AUTO 12003KT 090V160 9999 OVC005 23/22 Q1007 NOSIG RMK A2975
RJAA 171830Z AUTO 13002KT 9999 OVC005 23/22 Q1008 NOSIG RMK A2977
RJAA 171800Z AUTO VRB02KT 9999 OVC005 23/22 Q1008 NOSIG RMK A2978
RJAA 171730Z AUTO 14003KT 9999 OVC005 23/22 Q1008 NOSIG RMK A2979
RJAA 171718Z AUTO VRB02KT 9999 BKN005 OVC009 23/22 Q1009 RMK A2979
RJAA 171700Z AUTO 09003KT 040V130 9999 BKN007 OVC010 24/22 Q1009 NOSIG RMK A2980
RJAA 171630Z AUTO 07004KT 9999 OVC010 24/22 Q1009 BECMG 04005KT TEMPO FEW004 BKN008 RMK A2980
RJAA 171600Z AUTO 06004KT 9999 OVC010 24/22 Q1009 TEMPO FEW004 BKN008 BECMG 04005KT
RJAA 171530Z AUTO 06004KT 9999 OVC011 24/22 Q1009 BECMG 05005KT TEMPO FEW004 BKN008 RMK A2982
RJAA 171500Z AUTO 01003KT 9999 SCT011 OVC013 24/22 Q1010 TEMPO FEW004 BKN008 RMK A2984
RJAA 171440Z AUTO 02003KT 9999 OVC014 24/21 Q1010 RMK A2983
RJAA 171430Z AUTO VRB02KT 9999 BKN015 OVC200 24/21 Q1010 BECMG 05005KT
RJAA 171400Z AUTO 06004KT 030V110 9999 FEW010 SCT016 BKN140 24/21 Q1010 BECMG 05005KT
RJAA 171330Z 06006KT 9999 FEW015 SCT020 BKN190 24/21 Q1010 BECMG 05005KT RMK 1CU015 3SC020 7AC190 A2984
RJAA 171300Z 07005KT 040V100 9999 FEW015 BKN020 24/21 Q1010 BECMG 05005KT RMK 1CU015 7SC020 A2985
RJAA 171230Z 06006KT 9999 FEW015 BKN020 24/20 Q1010 BECMG 05005KT
RJAA 171200Z 05005KT 010V090 9999 FEW015 BKN040 24/20 Q1010 NOSIG RMK 2CU015 6SC040 A2985
RJAA 171130Z 05005KT 9999 FEW015 BKN045 25/20 Q1011 NOSIG RMK 2CU015 6SC045 A2986
RJAA 171100Z 05006KT 9999 FEW020 SCT045 BKN/// 25/19 Q1011 NOSIG RMK 1CU020 3SC045 A2986
RJAA 171030Z 07005KT 9999 FEW020 SCT045 BKN/// 25/20 Q1010 NOSIG RMK 1CU020 3SC045 A2985
RJAA 171000Z VRB05KT 9999 FEW020 BKN045 25/20 Q1010 BECMG 08005KT RMK 1CU020 7SC045 A2984
RJAA 170930Z 07005KT 030V150 9999 FEW020 SCT045 BKN/// 25/21 Q1010 NOSIG RMK 1CU020 4SC045 A2984
RJAA 170900Z 10007KT 080V150 9999 -SHRA FEW020 BKN130 25/21 Q1009 NOSIG RMK 1CU020 7AC130 A2982
RJAA 170830Z 11007KT 070V190 9999 -SHRA FEW020 BKN090 BKN120 26/21 Q1009 NOSIG RMK 1CU020 5AC090 7AC120 A2982
RJAA 170800Z 10008KT 9999 VCSH FEW020 BKN110 BKN150 27/21 Q1009 TEMPO FM0830 4000 -SHRA
RJAA 170730Z 10012KT 9999 FEW030 BKN120 28/21 Q1009 NOSIG RMK 1CU030 7AC120 A2982
RJAA 170700Z 11009KT 9999 FEW030 SCT050 BKN120 29/22 Q1009 NOSIG RMK 1CU030 4SC050 6AC120 A2982
RJAA 170630Z 09011KT 9999 FEW020 BKN045 29/21 Q1009 NOSIG RMK 1CU020 7CU045 A2982
RJAA 170600Z 06012KT 9999 FEW030 SCT040 30/21 Q1009 BECMG 10010KT
RJAA 170530Z 06012KT 9999 FEW030 30/22 Q1009 BECMG 10010KT
RJAA 170500Z 07011KT 050V110 9999 FEW030 BKN120 30/22 Q1009 NOSIG RMK 1CU030 5AC120 A2980
RJAA 170430Z 11008KT 9999 FEW030 BKN040 BKN/// 30/23 Q1009 NOSIG
RJAA 170400Z 08009KT 9999 FEW030 BKN/// 30/22 Q1009 NOSIG RMK 1CU030 A2980
RJAA 170330Z 09010KT 9999 FEW030 SCT150 BKN/// 31/22 Q1009 NOSIG
RJAA 170300Z 07009KT 020V130 9999 FEW030 SCT150 BKN/// 30/23 Q1009 NOSIG RMK 1CU030 3AC150 A2980
RJAA 170230Z 06006KT 350V120 9999 -SHRA FEW020 SCT030 BKN150 30/24 Q1009 BECMG 08006KT RMK 1CU020 3CU030 5AC150 A2979
RJAA 170200Z 07012KT 9999 -SHRA FEW020 BKN030 BKN150 30/24 Q1008 NOSIG RMK 1CU020 5CU030 7AC150 A2977
RJAA 170130Z 06004KT 350V100 9999 -SHRA FEW015 BKN030 BKN170 30/24 Q1009 BECMG 08005KT
RJAA 170100Z 04006KT 9999 VCSH FEW015 SCT020 BKN030 28/25 Q1009 BECMG 08005KT RMK 1CU015 4CU020 7CU030 A2981
RJAA 170030Z 07004KT 9999 VCSH FEW015 BKN020 28/25 Q1009 NOSIG RMK 1CU015 7CU020 A2981
RJAA 170000Z 08004KT 040V110 9999 -SHRA FEW025 BKN150 28/25 Q1009 NOSIG RMK 2CU025 7AC150 A2980
RJAA 162330Z 08003KT 050V140 9999 -SHRA FEW030 BKN120 28/25 Q1008 NOSIG RMK 2CU030 7AC120 A2978
RJAA 162300Z VRB02KT 9999 -SHRA FEW030 BKN150 28/25 Q1008 NOSIG RMK 2CU030 7AC150 A2978
RJAA 162230Z VRB02KT 9999 -SHRA FEW030 BKN140 28/25 Q1007 NOSIG RMK 2CU030 7AC140 A2976
RJAA 162200Z VRB01KT 9999 -SHRA FEW030 BKN140 27/25 Q1007 NOSIG RMK 2CU030 7AC140 A2976
RJAA 162130Z VRB01KT 9999 -SHRA FEW030 BKN150 27/25 Q1007 NOSIG RMK 2CU030 7AC150 A2975
RJAA 162100Z 22003KT 180V250 9999 -SHRA FEW030 BKN150 BKN/// 26/24 Q1007 NOSIG
RJAA 162030Z AUTO 23004KT 190V260 9999 -RA NSC 26/24 Q1006 BECMG 26005KT
RJAA 162000Z AUTO 22007KT 9999 NSC 27/24 Q1006 BECMG 26005KT RMK A2972
RJAA 161930Z AUTO 22005KT 190V260 9999 NSC 27/24 Q1006 BECMG 26005KT
RJAA 161900Z AUTO 25006KT 200V290 9999 NSC 28/24 Q1005 NOSIG RMK A2970
RJAA 161830Z AUTO 25004KT 200V290 9999 NSC 27/24 Q1005 NOSIG RMK A2970
RJAA 161800Z AUTO 23005KT 200V260 9999 NSC 27/25 Q1005 BECMG 26005KT RMK A2969
RJAA 161730Z AUTO 23006KT 200V270 9999 NSC 27/25 Q1005 BECMG 26005KT RMK A2968
RJAA 161700Z AUTO 23005KT 190V260 9999 NSC 28/25 Q1004 BECMG 26005KT RMK A2967
RJAA 161630Z AUTO 24007KT 200V270 9999 NSC 28/25 Q1004 BECMG 22008KT RMK A2966
RJAA 161600Z AUTO 23010KT 190V280 9999 NSC 28/25 Q1004 NOSIG RMK A2966
RJAA 161530Z AUTO 22009KT 9999 NSC 28/25 Q1004 NOSIG RMK A2967
RJAA 161500Z AUTO 22010KT 180V250 9999 NSC 28/25 Q1004 NOSIG RMK A2965
RJAA 161430Z AUTO 22010KT 190V260 9999 NSC 28/25 Q1004 NOSIG RMK A2966